Time;durP1;ratioP1;P1;durP2;ratioP2;P2;SDS_P1;SDS_P2;PMS_P1;PMS_P2;Temp;Humidity;BMP_temperature;BMP_pressure;BME280_temperature;BME280_humidity;BME280_pressure;Samples;Min_cycle;Max_cycle;Signal;HPM_P1;HPM_P2
2022/07/09 00:02:08;;;;;;;10.03;8.33;;;;;;;;;;5319982;28;20036;-84
2022/07/09 00:04:39;;;;;;;13.82;12.48;;;;;;;;;;5300152;28;20266;-84
2022/07/09 00:07:11;;;;;;;12.43;9.73;;;;;;;;;;5299064;28;20492;-84
2022/07/09 00:09:42;;;;;;;11.67;9.90;;;;;;;;;;5318559;28;20463;-84
2022/07/09 00:12:13;;;;;;;11.10;9.30;;;;;;;;;;5306548;28;20880;-84
2022/07/09 00:14:44;;;;;;;11.18;9.30;;;;;;;;;;5296493;28;20115;-84
2022/07/09 00:17:15;;;;;;;11.60;9.17;;;;;;;;;;5320301;28;20614;-84
2022/07/09 00:19:47;;;;;;;11.73;10.63;;;;;;;;;;5320756;28;20046;-84
2022/07/09 00:22:18;;;;;;;12.93;11.00;;;;;;;;;;5300927;28;20308;-84
2022/07/09 00:24:49;;;;;;;13.85;10.77;;;;;;;;;;5299554;28;20064;-84
2022/07/09 00:27:20;;;;;;;11.70;10.57;;;;;;;;;;5315416;28;20036;-84
2022/07/09 00:29:51;;;;;;;14.83;11.30;;;;;;;;;;5316821;28;20291;-84
2022/07/09 00:32:23;;;;;;;19.05;10.65;;;;;;;;;;5321614;28;20415;-84
2022/07/09 00:34:54;;;;;;;11.50;10.33;;;;;;;;;;5319541;28;20082;-84
2022/07/09 00:37:25;;;;;;;12.10;10.38;;;;;;;;;;5302641;28;20278;-84
2022/07/09 00:39:56;;;;;;;14.73;12.40;;;;;;;;;;5318011;28;20414;-84
2022/07/09 00:42:27;;;;;;;19.70;14.70;;;;;;;;;;5317922;28;20725;-84
2022/07/09 00:44:59;;;;;;;14.70;12.10;;;;;;;;;;5317413;28;20024;-84
2022/07/09 00:47:30;;;;;;;10.97;9.03;;;;;;;;;;5321145;28;20286;-84
2022/07/09 00:50:01;;;;;;;16.30;12.80;;;;;;;;;;5321929;28;20338;-84
2022/07/09 00:52:34;;;;;;;14.45;12.70;;;;;;;;;;5313275;28;20293;-84
2022/07/09 00:55:06;;;;;;;10.93;9.85;;;;;;;;;;5316673;28;20484;-85
2022/07/09 00:57:38;;;;;;;12.18;10.48;;;;;;;;;;5318612;28;20027;-84
2022/07/09 01:00:10;;;;;;;10.60;9.52;;;;;;;;;;5317107;28;20110;-84
2022/07/09 01:02:41;;;;;;;11.18;8.95;;;;;;;;;;5318040;28;20043;-84
2022/07/09 01:05:12;;;;;;;11.95;10.70;;;;;;;;;;5319738;28;20419;-84
2022/07/09 01:07:44;;;;;;;16.27;13.03;;;;;;;;;;5317918;28;20036;-84
2022/07/09 01:10:15;;;;;;;14.10;9.63;;;;;;;;;;5316022;28;20128;-84
2022/07/09 01:12:46;;;;;;;12.23;11.18;;;;;;;;;;5320351;28;20109;-84
2022/07/09 01:15:18;;;;;;;11.20;10.10;;;;;;;;;;5314584;28;20028;-84
2022/07/09 01:17:51;;;;;;;11.03;9.70;;;;;;;;;;5317198;28;20036;-84
2022/07/09 01:20:23;;;;;;;13.07;11.85;;;;;;;;;;5317132;28;20757;-84
2022/07/09 01:22:55;;;;;;;10.10;9.10;;;;;;;;;;5319084;28;20024;-84
2022/07/09 01:25:46;;;;;;;13.23;11.95;;;;;;;;;;5315957;28;20033;-84
2022/07/09 01:28:17;;;;;;;12.15;10.95;;;;;;;;;;5313756;28;20396;-84
2022/07/09 01:30:48;;;;;;;14.02;12.57;;;;;;;;;;5318794;28;20089;-84
2022/07/09 01:33:20;;;;;;;12.60;11.35;;;;;;;;;;5317355;28;20590;-84
2022/07/09 01:35:51;;;;;;;11.97;10.97;;;;;;;;;;5318157;28;20494;-84
2022/07/09 01:38:22;;;;;;;11.27;10.17;;;;;;;;;;5318067;28;20349;-84
2022/07/09 01:40:53;;;;;;;11.20;9.50;;;;;;;;;;5293997;28;20298;-84
2022/07/09 01:43:25;;;;;;;11.73;10.55;;;;;;;;;;5323965;28;20051;-89
2022/07/09 01:45:57;;;;;;;10.38;9.50;;;;;;;;;;5307197;28;20846;-88
2022/07/09 01:48:38;;;;;;;9.93;8.98;;;;;;;;;;5324973;28;20123;-89
2022/07/09 01:51:09;;;;;;;12.98;10.82;;;;;;;;;;5303747;28;20031;-87
2022/07/09 01:53:41;;;;;;;15.17;12.33;;;;;;;;;;5309454;28;20028;-87
2022/07/09 01:56:12;;;;;;;17.30;14.13;;;;;;;;;;5325245;28;20270;-89
2022/07/09 01:58:44;;;;;;;15.50;13.57;;;;;;;;;;5325110;28;20031;-89
2022/07/09 02:01:22;;;;;;;18.13;16.42;;;;;;;;;;5324567;28;20028;-89
2022/07/09 02:03:57;;;;;;;14.48;12.93;;;;;;;;;;5306229;28;20046;-89
2022/07/09 02:06:31;;;;;;;21.83;18.20;;;;;;;;;;5306056;28;20032;-88
2022/07/09 02:09:05;;;;;;;16.75;15.07;;;;;;;;;;5306063;28;20024;-89
2022/07/09 02:11:43;;;;;;;15.27;13.68;;;;;;;;;;5306178;28;20047;-89
2022/07/09 02:14:21;;;;;;;19.60;15.50;;;;;;;;;;5293636;28;20051;-88
2022/07/09 02:17:06;;;;;;;18.67;16.83;;;;;;;;;;5308096;28;20029;-89
2022/07/09 02:19:38;;;;;;;14.63;13.13;;;;;;;;;;5287388;28;20584;-88
2022/07/09 02:22:14;;;;;;;17.73;14.38;;;;;;;;;;5304917;28;20116;-88
2022/07/09 02:24:47;;;;;;;13.93;12.48;;;;;;;;;;5288871;28;20500;-88
2022/07/09 02:27:22;;;;;;;13.90;12.40;;;;;;;;;;5289913;28;20042;-88
2022/07/09 02:30:14;;;;;;;16.05;14.50;;;;;;;;;;5309732;28;20025;-88
2022/07/09 02:32:49;;;;;;;17.55;15.38;;;;;;;;;;5304659;28;20483;-88
2022/07/09 02:35:22;;;;;;;16.33;14.50;;;;;;;;;;5319946;28;20040;-88
2022/07/09 02:38:14;;;;;;;19.38;17.40;;;;;;;;;;5288351;28;20067;-88
2022/07/09 02:40:45;;;;;;;15.90;13.18;;;;;;;;;;5287676;28;20036;-88
2022/07/09 02:43:29;;;;;;;;;;;;;;;;;;;;;
2022/07/09 02:46:14;;;;;;;15.35;13.77;;;;;;;;;;5320488;28;40395;-88
2022/07/09 02:48:48;;;;;;;17.10;15.40;;;;;;;;;;5309945;28;20051;-88
2022/07/09 02:51:28;;;;;;;13.95;12.60;;;;;;;;;;5304531;28;20062;-88
2022/07/09 02:54:10;;;;;;;15.13;13.63;;;;;;;;;;5287633;28;20438;-88
2022/07/09 02:56:50;;;;;;;20.95;18.83;;;;;;;;;;5317618;28;20031;-88
2022/07/09 02:59:22;;;;;;;22.63;18.55;;;;;;;;;;5309655;28;20020;-88
2022/07/09 03:02:00;;;;;;;23.73;21.30;;;;;;;;;;5299826;28;20025;-88
2022/07/09 03:05:04;;;;;;;24.33;21.92;;;;;;;;;;5260121;28;20037;-89
2022/07/09 03:08:01;;;;;;;26.30;23.67;;;;;;;;;;5260938;28;20033;-88
2022/07/09 03:10:45;;;;;;;;;;;;;;;;;;;;;
2022/07/09 03:13:20;;;;;;;25.27;21.55;;;;;;;;;;5260543;28;40082;-88
2022/07/09 03:15:51;;;;;;;18.67;16.90;;;;;;;;;;5261940;28;20107;-88
2022/07/09 03:18:23;;;;;;;21.35;19.15;;;;;;;;;;5244806;28;20025;-88
2022/07/09 03:20:55;;;;;;;25.10;22.45;;;;;;;;;;5262002;28;20041;-89
2022/07/09 03:23:46;;;;;;;26.95;24.15;;;;;;;;;;5245965;28;20485;-90
2022/07/09 03:26:27;;;;;;;30.05;24.88;;;;;;;;;;5253835;28;20116;-88
2022/07/09 03:28:59;;;;;;;25.15;21.65;;;;;;;;;;5228467;28;20096;-88
2022/07/09 03:31:30;;;;;;;23.02;20.77;;;;;;;;;;5234175;28;20025;-82
2022/07/09 04:02:05;;;;;;;;;;;;;;;;;;;;;
2022/07/09 04:07:40;;;;;;;24.63;21.75;;;;;;;;;;5124775;29;20037;-87
2022/07/09 04:14:02;;;;;;;37.53;32.58;;;;;;;;;;5129228;29;20044;-87
2022/07/09 04:48:52;;;;;;;40.30;32.30;;;;;;;;;;5214885;28;20410;-88
2022/07/09 04:54:51;;;;;;;52.58;42.22;;;;;;;;;;5176994;28;20746;-88
2022/07/09 04:57:22;;;;;;;39.17;33.67;;;;;;;;;;5186588;28;20085;-82
2022/07/09 04:59:57;;;;;;;47.70;38.55;;;;;;;;;;5209957;28;20542;-81
2022/07/09 05:02:28;;;;;;;35.22;31.40;;;;;;;;;;5249564;28;20055;-81
2022/07/09 05:04:59;;;;;;;40.50;34.72;;;;;;;;;;5294088;28;20025;-81
2022/07/09 05:07:30;;;;;;;40.30;34.90;;;;;;;;;;5292066;28;20036;-82
2022/07/09 05:10:02;;;;;;;36.90;32.90;;;;;;;;;;5290496;28;20037;-82
2022/07/09 05:12:33;;;;;;;38.15;32.92;;;;;;;;;;5294500;28;20040;-82
2022/07/09 05:15:05;;;;;;;41.03;36.57;;;;;;;;;;5295641;28;20033;-81
2022/07/09 05:17:36;;;;;;;34.42;30.88;;;;;;;;;;5293336;28;20036;-82
2022/07/09 05:20:08;;;;;;;36.00;32.17;;;;;;;;;;5294613;28;20059;-81
2022/07/09 05:22:40;;;;;;;38.85;34.72;;;;;;;;;;5296201;28;20032;-82
2022/07/09 05:25:11;;;;;;;30.95;27.55;;;;;;;;;;5295949;28;20103;-81
2022/07/09 05:27:43;;;;;;;36.07;32.07;;;;;;;;;;5293226;28;20133;-81
2022/07/09 05:30:15;;;;;;;34.65;31.15;;;;;;;;;;5294849;28;20024;-82
2022/07/09 05:32:46;;;;;;;38.30;34.33;;;;;;;;;;5294472;28;20530;-81
2022/07/09 05:35:17;;;;;;;38.67;34.60;;;;;;;;;;5296347;28;20017;-82
2022/07/09 05:37:48;;;;;;;29.33;26.15;;;;;;;;;;5289171;28;20861;-81
2022/07/09 05:40:20;;;;;;;32.53;29.30;;;;;;;;;;5289547;28;20025;-82
2022/07/09 05:42:51;;;;;;;36.07;32.33;;;;;;;;;;5292579;28;20294;-82
2022/07/09 05:45:22;;;;;;;38.93;35.00;;;;;;;;;;5295584;28;20306;-81
2022/07/09 05:47:53;;;;;;;36.07;31.83;;;;;;;;;;5292802;28;20408;-81
2022/07/09 05:50:24;;;;;;;39.45;33.83;;;;;;;;;;5300763;28;20291;-82
2022/07/09 05:52:55;;;;;;;37.97;33.88;;;;;;;;;;5292734;28;20029;-82
2022/07/09 05:55:27;;;;;;;37.63;33.60;;;;;;;;;;5289352;28;20016;-82
2022/07/09 05:57:58;;;;;;;42.10;35.88;;;;;;;;;;5291285;28;20238;-81
2022/07/09 06:00:29;;;;;;;35.00;30.80;;;;;;;;;;5295877;28;20024;-81
2022/07/09 06:03:00;;;;;;;36.03;32.17;;;;;;;;;;5293942;28;20139;-82
2022/07/09 06:05:32;;;;;;;34.83;31.13;;;;;;;;;;5295566;28;20278;-82
2022/07/09 06:08:03;;;;;;;31.37;28.30;;;;;;;;;;5298001;28;20039;-81
2022/07/09 06:10:34;;;;;;;29.58;26.67;;;;;;;;;;5292201;28;20087;-81
2022/07/09 06:13:05;;;;;;;31.48;28.38;;;;;;;;;;5295335;28;20543;-81
2022/07/09 06:15:36;;;;;;;31.07;27.93;;;;;;;;;;5293910;28;20399;-81
2022/07/09 06:18:08;;;;;;;30.63;27.63;;;;;;;;;;5303288;28;20303;-81
2022/07/09 06:20:39;;;;;;;27.70;24.73;;;;;;;;;;5293309;28;20032;-82
2022/07/09 06:23:10;;;;;;;30.40;27.37;;;;;;;;;;5298340;28;20121;-82
2022/07/09 06:25:42;;;;;;;27.83;25.00;;;;;;;;;;5316373;28;20316;-82
2022/07/09 06:28:13;;;;;;;21.73;19.47;;;;;;;;;;5300859;28;20037;-81
2022/07/09 06:30:45;;;;;;;23.55;21.02;;;;;;;;;;5298484;28;20035;-82
2022/07/09 06:33:16;;;;;;;29.17;25.10;;;;;;;;;;5299313;28;20036;-82
2022/07/09 06:35:47;;;;;;;25.33;22.90;;;;;;;;;;5293910;28;20108;-82
2022/07/09 06:38:18;;;;;;;28.53;25.80;;;;;;;;;;5301573;28;20039;-82
2022/07/09 06:40:49;;;;;;;28.97;26.07;;;;;;;;;;5298284;28;20029;-81
2022/07/09 06:43:20;;;;;;;23.90;21.50;;;;;;;;;;5298003;28;20294;-81
2022/07/09 06:45:53;;;;;;;27.83;25.00;;;;;;;;;;5297277;28;20154;-81
2022/07/09 06:48:24;;;;;;;28.17;25.17;;;;;;;;;;5294024;28;20087;-81
2022/07/09 06:50:55;;;;;;;28.70;25.80;;;;;;;;;;5300886;28;20117;-81
2022/07/09 06:53:26;;;;;;;24.07;21.87;;;;;;;;;;5291914;28;20469;-82
2022/07/09 06:55:58;;;;;;;28.47;25.63;;;;;;;;;;5299468;28;20024;-82
2022/07/09 06:58:29;;;;;;;28.03;22.30;;;;;;;;;;5298347;28;20040;-82
2022/07/09 07:01:00;;;;;;;26.50;23.53;;;;;;;;;;5300172;28;20099;-81
2022/07/09 07:03:31;;;;;;;23.80;21.23;;;;;;;;;;5300205;28;20439;-82
2022/07/09 07:06:02;;;;;;;25.55;22.13;;;;;;;;;;5300333;28;20480;-81
2022/07/09 07:08:34;;;;;;;22.83;20.70;;;;;;;;;;5293069;28;20656;-81
2022/07/09 07:11:05;;;;;;;20.30;18.42;;;;;;;;;;5298294;28;20028;-82
2022/07/09 07:13:36;;;;;;;19.07;17.10;;;;;;;;;;5288877;28;20033;-82
2022/07/09 07:16:07;;;;;;;21.23;19.05;;;;;;;;;;5296855;28;20052;-82
2022/07/09 07:18:39;;;;;;;20.00;17.80;;;;;;;;;;5304553;28;20016;-81
2022/07/09 07:21:10;;;;;;;20.80;18.60;;;;;;;;;;5285724;28;20074;-82
2022/07/09 07:23:41;;;;;;;20.57;18.57;;;;;;;;;;5299635;28;20040;-81
2022/07/09 07:26:12;;;;;;;19.03;16.97;;;;;;;;;;5302193;28;20025;-82
2022/07/09 07:28:43;;;;;;;18.30;15.97;;;;;;;;;;5303633;28;20048;-81
2022/07/09 07:31:15;;;;;;;17.13;14.93;;;;;;;;;;5303493;28;20491;-81
2022/07/09 07:33:46;;;;;;;17.80;16.15;;;;;;;;;;5303898;28;20459;-81
2022/07/09 07:36:17;;;;;;;16.13;14.45;;;;;;;;;;5301618;28;20031;-81
2022/07/09 07:38:49;;;;;;;17.37;14.37;;;;;;;;;;5303606;28;20085;-81
2022/07/09 07:41:20;;;;;;;19.87;15.23;;;;;;;;;;5299284;28;20288;-81
2022/07/09 07:43:52;;;;;;;17.23;15.45;;;;;;;;;;5306316;28;20503;-81
2022/07/09 07:46:23;;;;;;;15.43;13.93;;;;;;;;;;5300118;28;20108;-81
2022/07/09 07:48:54;;;;;;;14.40;13.00;;;;;;;;;;5296108;28;20094;-81
2022/07/09 07:51:25;;;;;;;15.50;13.97;;;;;;;;;;5298428;28;20334;-81
2022/07/09 07:53:57;;;;;;;15.07;13.57;;;;;;;;;;5292877;28;20470;-81
2022/07/09 07:56:28;;;;;;;20.23;15.45;;;;;;;;;;5299159;28;20017;-81
2022/07/09 07:58:59;;;;;;;18.03;14.50;;;;;;;;;;5297362;28;20036;-82
2022/07/09 08:01:30;;;;;;;16.03;13.63;;;;;;;;;;5297046;28;20690;-80
2022/07/09 08:04:02;;;;;;;17.30;15.40;;;;;;;;;;5299824;28;20028;-81
2022/07/09 08:06:34;;;;;;;16.40;14.55;;;;;;;;;;5283959;28;20052;-81
2022/07/09 08:09:06;;;;;;;15.48;13.85;;;;;;;;;;5283011;28;20592;-81
2022/07/09 08:11:37;;;;;;;16.43;14.43;;;;;;;;;;5284173;28;20021;-80
2022/07/09 08:14:09;;;;;;;15.83;14.13;;;;;;;;;;5303003;28;20474;-81
2022/07/09 08:16:40;;;;;;;19.50;14.13;;;;;;;;;;5304355;28;20021;-81
2022/07/09 08:19:13;;;;;;;18.17;14.10;;;;;;;;;;5297268;28;20036;-80
2022/07/09 08:21:44;;;;;;;16.13;12.48;;;;;;;;;;5299364;28;20384;-80
2022/07/09 08:24:16;;;;;;;16.57;13.23;;;;;;;;;;5282535;28;20104;-82
2022/07/09 08:26:47;;;;;;;15.93;14.30;;;;;;;;;;5281137;28;20024;-82
2022/07/09 08:29:18;;;;;;;16.57;13.90;;;;;;;;;;5266360;28;20050;-81
2022/07/09 08:31:50;;;;;;;17.38;13.43;;;;;;;;;;5260385;28;20025;-81
2022/07/09 08:34:21;;;;;;;15.93;13.52;;;;;;;;;;5262066;28;20020;-81
2022/07/09 08:36:52;;;;;;;15.23;13.82;;;;;;;;;;5260247;28;20107;-81
2022/07/09 08:39:24;;;;;;;19.57;14.93;;;;;;;;;;5261100;28;20022;-80
2022/07/09 08:41:55;;;;;;;16.83;12.53;;;;;;;;;;5261857;28;20088;-80
2022/07/09 08:44:28;;;;;;;16.10;13.52;;;;;;;;;;5266640;28;20033;-81
2022/07/09 08:47:00;;;;;;;14.18;12.68;;;;;;;;;;5282001;28;20025;-80
2022/07/09 08:49:31;;;;;;;11.85;10.55;;;;;;;;;;5273805;28;20592;-81
2022/07/09 08:52:03;;;;;;;11.85;10.65;;;;;;;;;;5260890;28;20021;-81
2022/07/09 08:54:37;;;;;;;13.73;12.25;;;;;;;;;;5263066;28;20029;-81
2022/07/09 08:57:08;;;;;;;14.43;10.10;;;;;;;;;;5276069;28;20358;-81
2022/07/09 08:59:39;;;;;;;11.97;10.77;;;;;;;;;;5269662;28;21481;-80
2022/07/09 09:02:13;;;;;;;15.10;12.10;;;;;;;;;;5281235;28;20040;-80
2022/07/09 09:04:44;;;;;;;12.02;10.82;;;;;;;;;;5260485;28;20041;-81
2022/07/09 09:07:17;;;;;;;14.02;10.88;;;;;;;;;;5278988;28;20554;-80
2022/07/09 09:09:49;;;;;;;10.63;9.13;;;;;;;;;;5279236;28;20017;-80
2022/07/09 09:12:26;;;;;;;10.85;9.30;;;;;;;;;;5281722;28;20146;-81
2022/07/09 09:14:57;;;;;;;10.80;9.80;;;;;;;;;;5281521;28;20071;-81
2022/07/09 09:17:28;;;;;;;15.13;9.97;;;;;;;;;;5281328;28;20029;-80
2022/07/09 09:20:00;;;;;;;11.87;10.00;;;;;;;;;;5263761;28;20071;-80
2022/07/09 09:22:32;;;;;;;13.40;9.60;;;;;;;;;;5281794;28;20033;-80
2022/07/09 09:25:03;;;;;;;11.47;10.30;;;;;;;;;;5270456;28;20466;-80
2022/07/09 09:27:34;;;;;;;14.15;10.15;;;;;;;;;;5262790;28;20040;-80
2022/07/09 09:30:09;;;;;;;14.10;11.30;;;;;;;;;;5281560;28;20032;-80
2022/07/09 09:32:40;;;;;;;13.60;12.18;;;;;;;;;;5280980;28;20036;-81
2022/07/09 09:35:11;;;;;;;13.55;10.85;;;;;;;;;;5290147;28;20029;-80
2022/07/09 09:37:42;;;;;;;14.43;11.90;;;;;;;;;;5302672;28;20059;-80
2022/07/09 09:40:14;;;;;;;13.75;11.25;;;;;;;;;;5302482;28;20081;-81
2022/07/09 09:42:45;;;;;;;12.10;10.85;;;;;;;;;;5305200;28;20029;-80
2022/07/09 09:45:17;;;;;;;12.70;10.88;;;;;;;;;;5306375;28;20025;-80
2022/07/09 09:47:49;;;;;;;13.67;11.17;;;;;;;;;;5321809;28;20539;-81
2022/07/09 09:50:21;;;;;;;13.77;11.88;;;;;;;;;;5306457;28;20033;-81
2022/07/09 09:52:54;;;;;;;13.73;11.70;;;;;;;;;;5306929;28;20467;-81
2022/07/09 09:55:25;;;;;;;18.13;11.43;;;;;;;;;;5321089;28;20028;-80
2022/07/09 09:57:57;;;;;;;13.10;11.05;;;;;;;;;;5306603;28;20376;-80
2022/07/09 10:00:28;;;;;;;13.00;11.75;;;;;;;;;;5306440;28;20024;-80
2022/07/09 10:03:01;;;;;;;12.43;11.10;;;;;;;;;;5305812;28;20021;-80
2022/07/09 10:05:32;;;;;;;16.00;10.73;;;;;;;;;;5294052;28;20369;-81
2022/07/09 10:08:04;;;;;;;14.48;11.38;;;;;;;;;;5300577;28;20036;-80
2022/07/09 10:10:35;;;;;;;15.88;11.02;;;;;;;;;;5284960;28;20040;-80
2022/07/09 10:13:06;;;;;;;15.00;8.77;;;;;;;;;;5285092;28;20064;-80
2022/07/09 10:15:47;;;;;;;15.23;8.75;;;;;;;;;;5284633;28;20094;-81
2022/07/09 10:18:19;;;;;;;10.02;7.28;;;;;;;;;;5285047;28;20082;-81
2022/07/09 10:20:54;;;;;;;9.82;7.00;;;;;;;;;;5300718;28;20017;-80
2022/07/09 10:23:26;;;;;;;8.93;7.32;;;;;;;;;;5284394;28;20103;-81
2022/07/09 10:25:57;;;;;;;11.20;7.30;;;;;;;;;;5284455;28;20017;-80
2022/07/09 10:28:30;;;;;;;12.10;7.30;;;;;;;;;;5283975;28;20098;-80
2022/07/09 10:31:07;;;;;;;9.05;6.20;;;;;;;;;;5282556;28;20335;-80
2022/07/09 10:33:42;;;;;;;9.35;5.85;;;;;;;;;;5265910;28;20025;-80
2022/07/09 10:36:14;;;;;;;11.30;5.82;;;;;;;;;;5279064;28;20024;-80
2022/07/09 10:38:59;;;;;;;9.13;5.53;;;;;;;;;;5282520;28;20037;-80
2022/07/09 10:41:30;;;;;;;8.70;5.45;;;;;;;;;;5284327;28;20450;-80
2022/07/09 10:44:02;;;;;;;7.53;4.60;;;;;;;;;;5282854;28;20056;-80
2022/07/09 10:46:33;;;;;;;4.38;2.50;;;;;;;;;;5262556;28;20018;-80
2022/07/09 10:49:06;;;;;;;3.90;2.20;;;;;;;;;;5263166;28;20404;-81
2022/07/09 10:51:38;;;;;;;4.88;2.08;;;;;;;;;;5263237;28;20025;-81
2022/07/09 10:54:16;;;;;;;6.53;2.03;;;;;;;;;;5262226;28;20495;-81
2022/07/09 10:56:47;;;;;;;8.60;2.22;;;;;;;;;;5263357;28;20053;-81
2022/07/09 10:59:22;;;;;;;5.23;1.80;;;;;;;;;;5263417;28;20064;-81
2022/07/09 11:01:55;;;;;;;3.70;1.75;;;;;;;;;;5262697;28;20283;-81
2022/07/09 11:04:27;;;;;;;5.00;1.65;;;;;;;;;;5265850;28;20053;-81
2022/07/09 11:07:01;;;;;;;4.53;2.08;;;;;;;;;;5284447;28;20021;-81
2022/07/09 11:09:32;;;;;;;3.90;1.70;;;;;;;;;;5265664;28;20042;-81
2022/07/09 11:12:04;;;;;;;5.13;2.10;;;;;;;;;;5284219;28;20512;-81
2022/07/09 11:14:42;;;;;;;5.32;1.80;;;;;;;;;;5282901;28;20048;-81
2022/07/09 11:17:14;;;;;;;3.05;1.50;;;;;;;;;;5283954;28;20108;-81
2022/07/09 11:19:46;;;;;;;3.42;1.80;;;;;;;;;;5285106;28;20020;-81
2022/07/09 11:22:17;;;;;;;2.35;1.58;;;;;;;;;;5283485;28;20020;-81
2022/07/09 11:24:49;;;;;;;6.77;1.93;;;;;;;;;;5274263;28;20048;-81
2022/07/09 11:27:20;;;;;;;3.37;1.23;;;;;;;;;;5262925;28;20041;-81
2022/07/09 11:29:51;;;;;;;4.77;1.30;;;;;;;;;;5284061;28;20504;-81
2022/07/09 11:32:22;;;;;;;2.83;0.90;;;;;;;;;;5283572;28;20130;-81
2022/07/09 11:34:53;;;;;;;5.45;1.17;;;;;;;;;;5288393;28;20123;-81
2022/07/09 11:37:25;;;;;;;3.87;1.00;;;;;;;;;;5304490;28;20016;-81
2022/07/09 11:39:56;;;;;;;3.40;0.90;;;;;;;;;;5304603;28;20031;-81
2022/07/09 11:42:28;;;;;;;3.90;0.90;;;;;;;;;;5304792;28;20369;-81
2022/07/09 11:44:59;;;;;;;4.15;1.00;;;;;;;;;;5304468;28;20091;-81
2022/07/09 11:47:32;;;;;;;3.15;0.90;;;;;;;;;;5303929;28;20033;-81
2022/07/09 11:50:10;;;;;;;8.35;1.00;;;;;;;;;;5305096;28;20759;-81
2022/07/09 11:52:49;;;;;;;3.53;1.00;;;;;;;;;;5304646;28;20302;-81
2022/07/09 11:55:21;;;;;;;2.55;0.90;;;;;;;;;;5284592;28;20543;-81
2022/07/09 11:57:53;;;;;;;2.17;0.80;;;;;;;;;;5304522;28;20093;-81
2022/07/09 12:00:27;;;;;;;2.45;0.77;;;;;;;;;;5303731;28;20079;-81
2022/07/09 12:03:01;;;;;;;2.72;0.73;;;;;;;;;;5305399;28;20035;-81
2022/07/09 12:05:35;;;;;;;1.00;0.70;;;;;;;;;;5292643;28;20032;-80
2022/07/09 12:08:07;;;;;;;3.05;0.90;;;;;;;;;;5283382;28;20116;-81
2022/07/09 12:10:39;;;;;;;5.35;1.35;;;;;;;;;;5282558;28;20103;-81
2022/07/09 12:13:11;;;;;;;1.58;0.75;;;;;;;;;;5283387;28;20966;-81
2022/07/09 12:15:42;;;;;;;2.77;0.77;;;;;;;;;;5281077;28;20116;-81
2022/07/09 12:18:14;;;;;;;4.53;0.80;;;;;;;;;;5283450;28;20275;-81
2022/07/09 12:20:45;;;;;;;2.43;0.80;;;;;;;;;;5283040;28;20035;-80
2022/07/09 12:23:16;;;;;;;1.67;0.73;;;;;;;;;;5283085;28;20250;-81
2022/07/09 12:25:48;;;;;;;1.57;0.57;;;;;;;;;;5282174;28;20075;-81
2022/07/09 12:28:19;;;;;;;3.77;0.70;;;;;;;;;;5282505;28;20060;-81
2022/07/09 12:30:50;;;;;;;5.67;0.73;;;;;;;;;;5282523;28;20032;-81
2022/07/09 12:33:21;;;;;;;2.73;0.70;;;;;;;;;;5281653;28;20033;-81
2022/07/09 12:35:52;;;;;;;1.40;0.70;;;;;;;;;;5277073;28;20029;-81
2022/07/09 12:38:23;;;;;;;1.83;0.60;;;;;;;;;;5282580;28;20104;-81
2022/07/09 12:40:55;;;;;;;1.60;0.63;;;;;;;;;;5282672;28;20135;-81
2022/07/09 12:43:26;;;;;;;2.57;0.70;;;;;;;;;;5264514;28;20033;-81
2022/07/09 12:45:58;;;;;;;1.87;0.57;;;;;;;;;;5246695;28;20148;-81
2022/07/09 12:48:29;;;;;;;1.35;0.60;;;;;;;;;;5243531;28;20033;-81
2022/07/09 12:51:00;;;;;;;0.90;0.63;;;;;;;;;;5261271;28;20322;-81
2022/07/09 12:53:31;;;;;;;2.03;0.57;;;;;;;;;;5244744;28;20056;-81
2022/07/09 12:56:03;;;;;;;2.77;0.40;;;;;;;;;;5259538;28;20100;-81
2022/07/09 12:58:34;;;;;;;1.58;0.80;;;;;;;;;;5261599;28;20029;-81
2022/07/09 13:01:05;;;;;;;1.83;0.50;;;;;;;;;;5261054;28;20096;-81
2022/07/09 13:03:37;;;;;;;2.93;0.83;;;;;;;;;;5261506;28;20081;-81
2022/07/09 13:06:30;;;;;;;5.50;0.68;;;;;;;;;;5276376;28;20049;-81
2022/07/09 13:09:00;;;;;;;2.28;0.50;;;;;;;;;;5259935;28;20569;-81
2022/07/09 13:11:31;;;;;;;1.67;0.73;;;;;;;;;;5261010;28;20033;-81
2022/07/09 13:14:02;;;;;;;2.40;0.60;;;;;;;;;;5261231;28;20120;-81
2022/07/09 13:16:37;;;;;;;0.75;0.50;;;;;;;;;;5259614;28;20071;-81
2022/07/09 13:19:08;;;;;;;2.90;0.47;;;;;;;;;;5260978;28;20041;-81
2022/07/09 13:21:39;;;;;;;1.35;0.40;;;;;;;;;;5259279;28;20068;-81
2022/07/09 13:24:10;;;;;;;1.70;0.70;;;;;;;;;;5264277;28;20037;-81
2022/07/09 13:26:42;;;;;;;1.10;0.47;;;;;;;;;;5282717;28;20385;-81
2022/07/09 13:29:13;;;;;;;3.40;0.60;;;;;;;;;;5293027;28;20074;-81
2022/07/09 13:31:44;;;;;;;0.90;0.40;;;;;;;;;;5304492;28;20029;-80
2022/07/09 13:34:15;;;;;;;4.57;0.70;;;;;;;;;;5304310;28;20302;-81
2022/07/09 13:36:47;;;;;;;2.57;0.70;;;;;;;;;;5300443;28;20031;-80
2022/07/09 13:39:18;;;;;;;2.45;0.70;;;;;;;;;;5304342;28;20025;-80
2022/07/09 13:41:49;;;;;;;3.03;0.77;;;;;;;;;;5303689;28;20035;-80
2022/07/09 13:44:20;;;;;;;4.47;1.03;;;;;;;;;;5300554;28;20025;-81
2022/07/09 13:46:54;;;;;;;4.70;0.98;;;;;;;;;;5298430;28;20047;-81
2022/07/09 13:49:25;;;;;;;5.07;0.80;;;;;;;;;;5282581;28;20124;-81
2022/07/09 13:51:59;;;;;;;1.27;0.50;;;;;;;;;;5283344;28;20096;-81
2022/07/09 13:54:30;;;;;;;4.53;0.68;;;;;;;;;;5282608;28;20075;-81
2022/07/09 13:57:01;;;;;;;2.60;0.87;;;;;;;;;;5282334;28;20021;-81
2022/07/09 13:59:36;;;;;;;2.25;0.80;;;;;;;;;;5281458;28;20048;-81
2022/07/09 14:02:07;;;;;;;9.55;1.00;;;;;;;;;;5281463;28;20027;-81
2022/07/09 14:04:38;;;;;;;5.80;0.57;;;;;;;;;;5283447;28;20099;-81
2022/07/09 14:07:10;;;;;;;5.20;0.93;;;;;;;;;;5281190;28;20116;-81
2022/07/09 14:09:42;;;;;;;4.28;0.90;;;;;;;;;;5279558;28;20047;-81
2022/07/09 14:12:13;;;;;;;5.28;1.00;;;;;;;;;;5281546;28;20025;-81
2022/07/09 14:14:44;;;;;;;9.10;1.20;;;;;;;;;;5281532;28;20465;-81
2022/07/09 14:17:16;;;;;;;5.93;0.93;;;;;;;;;;5280847;28;20372;-81
2022/07/09 14:19:47;;;;;;;7.95;1.05;;;;;;;;;;5280769;28;20028;-81
2022/07/09 14:22:19;;;;;;;5.83;0.83;;;;;;;;;;5281463;28;20092;-81
2022/07/09 14:24:50;;;;;;;3.90;1.00;;;;;;;;;;5280702;28;20028;-81
2022/07/09 14:27:21;;;;;;;3.63;0.97;;;;;;;;;;5281698;28;20046;-81
2022/07/09 14:29:52;;;;;;;3.00;0.70;;;;;;;;;;5284726;28;20508;-80
2022/07/09 14:32:24;;;;;;;3.03;0.90;;;;;;;;;;5282301;28;20032;-81
2022/07/09 14:34:55;;;;;;;2.25;0.82;;;;;;;;;;5284736;28;20469;-80
2022/07/09 14:37:27;;;;;;;3.90;0.93;;;;;;;;;;5284875;28;20029;-80
2022/07/09 14:39:59;;;;;;;5.13;0.80;;;;;;;;;;5283794;28;20093;-80
2022/07/09 14:42:30;;;;;;;2.77;0.93;;;;;;;;;;5283267;28;20120;-80
2022/07/09 14:45:01;;;;;;;3.05;0.60;;;;;;;;;;5284428;28;20084;-81
2022/07/09 14:47:32;;;;;;;5.77;0.80;;;;;;;;;;5284234;28;20029;-80
2022/07/09 14:50:04;;;;;;;2.33;0.90;;;;;;;;;;5283901;28;20355;-80
2022/07/09 14:52:35;;;;;;;2.60;0.70;;;;;;;;;;5283023;28;20025;-81
2022/07/09 14:55:07;;;;;;;2.85;0.73;;;;;;;;;;5297424;28;20134;-81
2022/07/09 14:57:38;;;;;;;2.72;0.75;;;;;;;;;;5284967;28;20396;-80
2022/07/09 15:00:10;;;;;;;2.80;0.88;;;;;;;;;;5289315;28;20037;-80
2022/07/09 15:02:41;;;;;;;2.75;0.77;;;;;;;;;;5267179;28;20031;-80
2022/07/09 15:05:12;;;;;;;4.40;1.10;;;;;;;;;;5299800;28;20807;-81
2022/07/09 15:07:44;;;;;;;2.07;0.70;;;;;;;;;;5299540;28;20064;-80
2022/07/09 15:10:15;;;;;;;3.95;0.65;;;;;;;;;;5300898;28;20106;-80
2022/07/09 15:12:46;;;;;;;5.63;1.17;;;;;;;;;;5286565;28;20021;-80
2022/07/09 15:15:17;;;;;;;14.87;1.50;;;;;;;;;;5302118;28;20123;-80
2022/07/09 15:17:50;;;;;;;5.93;1.03;;;;;;;;;;5300262;28;20408;-80
2022/07/09 15:20:24;;;;;;;7.60;1.10;;;;;;;;;;5280536;28;20300;-81
2022/07/09 15:22:56;;;;;;;3.65;0.90;;;;;;;;;;5300009;28;20039;-80
2022/07/09 15:25:30;;;;;;;4.30;0.80;;;;;;;;;;5297196;28;20418;-80
2022/07/09 15:28:02;;;;;;;4.07;0.90;;;;;;;;;;5296281;28;20045;-81
2022/07/09 15:30:33;;;;;;;3.47;1.05;;;;;;;;;;5302964;28;20025;-81
2022/07/09 15:33:04;;;;;;;6.40;1.60;;;;;;;;;;5298772;28;20063;-81
2022/07/09 15:35:35;;;;;;;6.00;1.10;;;;;;;;;;5304457;28;20020;-81
2022/07/09 15:38:07;;;;;;;4.17;1.03;;;;;;;;;;5304925;28;20052;-81
2022/07/09 15:40:38;;;;;;;2.83;1.02;;;;;;;;;;5302664;28;20016;-81
2022/07/09 15:43:09;;;;;;;2.63;1.13;;;;;;;;;;5304539;28;20047;-81
2022/07/09 15:45:43;;;;;;;5.20;0.97;;;;;;;;;;5304687;28;20656;-81
2022/07/09 15:48:14;;;;;;;2.38;1.00;;;;;;;;;;5304798;28;20717;-81
2022/07/09 15:50:45;;;;;;;3.20;1.20;;;;;;;;;;5304301;28;20024;-81
2022/07/09 15:53:17;;;;;;;2.63;1.00;;;;;;;;;;5303331;28;20447;-80
2022/07/09 15:55:48;;;;;;;3.47;1.17;;;;;;;;;;5304381;28;20487;-81
2022/07/09 15:58:19;;;;;;;5.32;1.33;;;;;;;;;;5304232;28;20028;-81
2022/07/09 16:00:50;;;;;;;4.07;1.10;;;;;;;;;;5285894;28;20387;-81
2022/07/09 16:03:21;;;;;;;3.67;1.00;;;;;;;;;;5303087;28;20033;-81
2022/07/09 16:05:53;;;;;;;3.20;1.20;;;;;;;;;;5300565;28;20287;-81
2022/07/09 16:08:24;;;;;;;4.05;1.00;;;;;;;;;;5303127;28;20446;-81
2022/07/09 16:10:55;;;;;;;4.93;1.27;;;;;;;;;;5282342;28;20111;-81
2022/07/09 16:13:26;;;;;;;4.43;1.43;;;;;;;;;;5285614;28;20282;-81